Thunder radar more information blitzortung!


Radar de pluja more information rain snow radar


Visita la nostra xarxa de llocs de meteo:

Template documentation
and downloads

And another site



No particular awareness of the weather is required.    There are no Weather-warnings

Pagina Historial Weather Underground text

Diari Resum Agost 19, 2017 Unitats:  Mètric    Imperial   Tant
« Previous Dia
SegĂźent Dia »
Diari Setmana Mensual Anual Personalitzada
  Maxima: Minima: Media:
Temperatura: -17.8 °C -5.4 °C -4 °C
Punt de rosada: -17.8 °C -9.6 °C -7.7 °C
Humitat: Humidity % 49 % 67 %
Wind Speed: 0 km/h 0 km/h 10.1 km/h
RĂ fegues de vent: 0 km/h - -
Vent:- - South
Pression baro: 0 hPa 34361.1 hPa -
Precipitacions: 0 mm    
Historical Graphs
 
 
Dades de taula per Agost 19, 2017
Temps Temperatura Punt de rosada Pression baro Vent Wind Speed RĂ fegues de vent Humitat Rainfall Rate (Hourly)
-17.8 °C -17.8 °C 0 hPa Calm     Humidity % 0 mm
00:04 -3.2 °C -9.6 °C 34361.1 hPa ENE 15 km/h 15 km/h 49 % 0 mm
00:09 -3.2 °C -9.4 °C 34361.1 hPa NNE 17.9 km/h 17.9 km/h 50 % 0 mm
00:14 -3.2 °C -9.3 °C 34361.1 hPa East 15 km/h 15 km/h 51 % 0 mm
00:19 -3.4 °C -8.8 °C 34361.1 hPa ENE 15 km/h 15 km/h 55 % 0 mm
00:24 -3.5 °C -8.4 °C 34361.1 hPa NNE 17.9 km/h 17.9 km/h 58 % 0 mm
00:29 -3.6 °C -8.2 °C 34395 hPa ESE 15 km/h 15 km/h 60 % 0 mm
00:34 -3.7 °C -8 °C 34395 hPa NNE 11.9 km/h 11.9 km/h 62 % 0 mm
00:39 -3.7 °C -7.7 °C 34395 hPa NE 11.9 km/h 11.9 km/h 65 % 0 mm
00:44 -3.8 °C -7.7 °C 34395 hPa East 15 km/h 15 km/h 65 % 0 mm
00:49 -3.8 °C -7.6 °C 34395 hPa NE 9 km/h 9 km/h 66 % 0 mm
00:50 -3.8 °C -7.6 °C 34395 hPa ESE 9.8 km/h 9.8 km/h 66 % 0 mm
00:55 -3.9 °C -7.3 °C 34395 hPa East 20.9 km/h 20.9 km/h 69 % 0 mm
01:00 -4 °C -7.3 °C 34395 hPa East 17.9 km/h 17.9 km/h 70 % 0 mm
01:05 -4 °C -7.1 °C 34395 hPa East 11.9 km/h 11.9 km/h 71 % 0 mm
01:10 -4.1 °C -7.1 °C 34395 hPa ESE 11.9 km/h 11.9 km/h 72 % 0 mm
01:15 -4.1 °C -7.2 °C 34361.1 hPa East 11.9 km/h 11.9 km/h 71 % 0 mm
01:20 -4.1 °C -7.1 °C 34361.1 hPa NE 6 km/h 6 km/h 72 % 0 mm
01:25 -4.1 °C -7 °C 34361.1 hPa ESE 15 km/h 15 km/h 73 % 0 mm
01:30 -4.1 °C -7 °C 34361.1 hPa ESE 11.9 km/h 11.9 km/h 73 % 0 mm
01:35 -4.1 °C -7 °C 34361.1 hPa ENE 12.2 km/h 12.2 km/h 73 % 0 mm
01:40 -4.1 °C -7 °C 34361.1 hPa ENE 9 km/h 9 km/h 73 % 0 mm
01:45 -4.1 °C -7.1 °C 34395 hPa NNE 11.9 km/h 11.9 km/h 72 % 0 mm
01:50 -4.1 °C -7 °C 34395 hPa NE 11.9 km/h 11.9 km/h 73 % 0 mm
01:55 -4.1 °C -6.8 °C 34395 hPa ENE 12.7 km/h 12.7 km/h 74 % 0 mm
02:00 -4.2 °C -7.1 °C 34395 hPa NE 9.3 km/h 9.3 km/h 73 % 0 mm
02:05 -4.2 °C -6.9 °C 34395 hPa ENE 9 km/h 9 km/h 74 % 0 mm
02:06 -4.1 °C -6.8 °C 34395 hPa ENE 9 km/h 9 km/h 74 % 0 mm
02:11 -4.2 °C -6.9 °C 34395 hPa NNE 9 km/h 9 km/h 74 % 0 mm
02:16 -4.2 °C -7.1 °C 34395 hPa ESE 6.8 km/h 6.8 km/h 73 % 0 mm
02:21 -4.2 °C -6.9 °C 34395 hPa East 11.9 km/h 11.9 km/h 74 % 0 mm
02:26 -4.2 °C -6.9 °C 34395 hPa ESE 6 km/h 6 km/h 74 % 0 mm
02:31 -4.2 °C -7.1 °C 34361.1 hPa ENE 8 km/h 8 km/h 73 % 0 mm
02:36 -4.2 °C -6.9 °C 34361.1 hPa East 11.9 km/h 11.9 km/h 74 % 0 mm
02:41 -4.2 °C -6.9 °C 34361.1 hPa ENE 9.3 km/h 9.3 km/h 74 % 0 mm
02:46 -4.2 °C -7.1 °C 34395 hPa ENE 9 km/h 9 km/h 73 % 0 mm
02:51 -4.2 °C -7.1 °C 34395 hPa NE 6 km/h 6 km/h 73 % 0 mm
02:56 -4.2 °C -6.9 °C 34395 hPa ENE 6 km/h 6 km/h 74 % 0 mm
03:01 -4.2 °C -7.1 °C 34361.1 hPa ENE 7.6 km/h 7.6 km/h 73 % 0 mm
03:06 -4.2 °C -7.1 °C 34361.1 hPa NE 3.7 km/h 5.1 km/h 73 % 0 mm
03:11 -4.2 °C -7.1 °C 34361.1 hPa ESE 9.3 km/h 9.3 km/h 73 % 0 mm
03:16 -4.2 °C -7 °C 34361.1 hPa ESE 6 km/h   74 % 0 mm
03:21 -4.2 °C -7.1 °C 34361.1 hPa SSE 6 km/h 6 km/h 73 % 0 mm
03:26 -4.2 °C -7 °C 34361.1 hPa WSW 6 km/h 6 km/h 74 % 0 mm
03:31 -4.2 °C -7 °C 34361.1 hPa WSW 3.1 km/h 3.7 km/h 74 % 0 mm
03:36 -4.2 °C -7 °C 34361.1 hPa SSE 4.2 km/h   74 % 0 mm
03:41 -4.3 °C -7 °C 34361.1 hPa WSW 6 km/h 6 km/h 74 % 0 mm
03:46 -4.4 °C -7.3 °C 34361.1 hPa WSW 6 km/h 6 km/h 73 % 0 mm
03:51 -4.4 °C -7.4 °C 34361.1 hPa WSW 6 km/h 6 km/h 72 % 0 mm
03:56 -4.4 °C -7.6 °C 34361.1 hPa WSW 3.7 km/h 3.7 km/h 71 % 0 mm
04:01 -4.4 °C -7.6 °C 34361.1 hPa West 6 km/h 6 km/h 71 % 0 mm
04:06 -4.4 °C -7.4 °C 34361.1 hPa WSW 3.1 km/h   72 % 0 mm
04:11 -4.4 °C -7.5 °C 34361.1 hPa WSW 6 km/h 6 km/h 71 % 0 mm
04:16 -4.4 °C -7.4 °C 34361.1 hPa West 3.1 km/h   72 % 0 mm
04:21 -4.4 °C -7.3 °C 34361.1 hPa WSW 3.1 km/h   73 % 0 mm
04:26 -4.4 °C -7.3 °C 34361.1 hPa Calm     73 % 0 mm
04:31 -4.5 °C -7.2 °C 34361.1 hPa Calm     74 % 0 mm
04:36 -4.6 °C -7.3 °C 34361.1 hPa Calm     74 % 0 mm
04:41 -4.6 °C -7.4 °C 34361.1 hPa Calm     73 % 0 mm
04:42 -4.6 °C -7.4 °C 34361.1 hPa Calm     73 % 0 mm
04:47 -4.6 °C -7.3 °C 34361.1 hPa Calm     74 % 0 mm
04:52 -4.6 °C -7.4 °C 34361.1 hPa SW 6 km/h   73 % 0 mm
04:57 -4.7 °C -7.5 °C 34361.1 hPa South 6 km/h 6 km/h 73 % 0 mm
05:02 -4.7 °C -7.6 °C 34361.1 hPa SW 6 km/h 6 km/h 72 % 0 mm
05:07 -4.7 °C -7.7 °C 34361.1 hPa SSW 6 km/h 6 km/h 71 % 0 mm
05:12 -4.7 °C -7.6 °C 34361.1 hPa East 3.1 km/h   72 % 0 mm
05:17 -4.8 °C -7.9 °C 34361.1 hPa WSW 6.8 km/h 6.8 km/h 71 % 0 mm
05:20 -4.8 °C -8.1 °C 34361.1 hPa WSW 6 km/h 6 km/h 70 % 0 mm
05:21 -4.8 °C -8.1 °C 34361.1 hPa WSW 6 km/h 6 km/h 70 % 0 mm
05:23 -4.8 °C -8.1 °C 34361.1 hPa WSW 6 km/h 6 km/h 70 % 0 mm
05:26 -4.8 °C -7.9 °C 34361.1 hPa Calm     71 % 0 mm
05:31 -4.8 °C -7.9 °C 34395 hPa WSW 3.1 km/h   71 % 0 mm
05:36 -4.9 °C -7.9 °C 34395 hPa SW 3.1 km/h 3.1 km/h 71 % 0 mm
05:41 -4.9 °C -7.9 °C 34395 hPa SW 3.7 km/h   71 % 0 mm
05:46 -4.8 °C -8.1 °C 34361.1 hPa WSW 4.2 km/h 4.2 km/h 70 % 0 mm
05:51 -4.8 °C -8.1 °C 34361.1 hPa WSW 6 km/h 6 km/h 70 % 0 mm
05:56 -4.8 °C -7.9 °C 34361.1 hPa SW 3.1 km/h   71 % 0 mm
06:01 -4.8 °C -8.1 °C 34395 hPa WSW 6 km/h 6 km/h 70 % 0 mm
06:06 -4.8 °C -8.1 °C 34395 hPa West 6.3 km/h 6.3 km/h 70 % 0 mm
06:11 -4.8 °C -7.9 °C 34395 hPa Calm     71 % 0 mm
06:16 -4.8 °C -7.9 °C 34395 hPa Calm     71 % 0 mm
06:21 -4.8 °C -7.7 °C 34395 hPa Calm     72 % 0 mm
06:26 -4.8 °C -7.7 °C 34395 hPa Calm     72 % 0 mm
06:31 -4.8 °C -7.7 °C 34395 hPa WNW 3.1 km/h   72 % 0 mm
06:36 -4.7 °C -7.7 °C 34395 hPa NW 6 km/h 6 km/h 72 % 0 mm
06:41 -4.7 °C -7.7 °C 34395 hPa WNW 6 km/h 6 km/h 72 % 0 mm
06:46 -4.7 °C -7.6 °C 34395 hPa NW 3.1 km/h   73 % 0 mm
06:51 -4.8 °C -7.6 °C 34395 hPa Calm     73 % 0 mm
06:56 -4.8 °C -7.6 °C 34395 hPa Calm     73 % 0 mm
07:01 -4.8 °C -7.7 °C 34395 hPa Calm     73 % 0 mm
07:06 -4.9 °C -7.7 °C 34395 hPa SSE 6 km/h 6 km/h 73 % 0 mm
07:11 -5 °C -7.7 °C 34395 hPa SSE 15 km/h 15 km/h 74 % 0 mm
07:16 -5.1 °C -7.9 °C 34395 hPa South 6 km/h   73 % 0 mm
07:21 -5.2 °C -8.1 °C 34395 hPa South 3.7 km/h 3.7 km/h 73 % 0 mm
07:26 -5.2 °C -8.2 °C 34395 hPa WSW 6 km/h 6 km/h 72 % 0 mm
07:31 -5.3 °C -8.2 °C 34395 hPa WSW 6 km/h 6 km/h 72 % 0 mm
07:36 -5.3 °C -8.2 °C 34395 hPa West 6.3 km/h 6.3 km/h 72 % 0 mm
07:41 -5.3 °C -8.2 °C 34395 hPa WSW 6.3 km/h 6.3 km/h 72 % 0 mm
07:46 -5.2 °C -8.2 °C 34395 hPa West 6.3 km/h 6.3 km/h 72 % 0 mm
07:51 -5.2 °C -8.1 °C 34395 hPa WSW 9 km/h 9 km/h 72 % 0 mm
07:56 -5.1 °C -7.9 °C 34395 hPa WNW 7.6 km/h 7.6 km/h 73 % 0 mm
08:01 -5.1 °C -7.9 °C 34395 hPa WNW 4.2 km/h 4.2 km/h 73 % 0 mm
08:06 -5 °C -7.9 °C 34395 hPa West 11.9 km/h 11.9 km/h 72 % 0 mm
08:11 -4.9 °C -7.8 °C 34395 hPa WSW 6 km/h 6 km/h 73 % 0 mm
08:16 -4.9 °C -7.7 °C 34395 hPa WNW 9.3 km/h 9.3 km/h 73 % 0 mm
08:21 -4.8 °C -7.7 °C 34395 hPa SW 6 km/h 6 km/h 73 % 0 mm
08:26 -4.7 °C -7.5 °C 34395 hPa SSW 6 km/h 6 km/h 73 % 0 mm
08:31 -4.6 °C -7.4 °C 34395 hPa SW 6 km/h 6 km/h 73 % 0 mm
08:36 -4.6 °C -7.6 °C 34395 hPa West 6 km/h 6 km/h 72 % 0 mm
08:41 -4.4 °C -7.6 °C 34395 hPa NNE 6.8 km/h   71 % 0 mm
08:46 -4.6 °C -7.6 °C 34428.8 hPa NNW 11.1 km/h 11.1 km/h 72 % 0 mm
08:51 -4.7 °C -7.8 °C 34428.8 hPa NW 11.9 km/h 11.9 km/h 71 % 0 mm
08:56 -4.7 °C -7.9 °C 34428.8 hPa NE 11.9 km/h 11.9 km/h 70 % 0 mm
09:01 -4.8 °C -8 °C 34428.8 hPa NNE 6 km/h 6 km/h 70 % 0 mm
09:06 -4.9 °C -8.1 °C 34428.8 hPa NNW 9.8 km/h 9.8 km/h 70 % 0 mm
09:12 -4.9 °C -8.3 °C 34428.8 hPa ENE 11.9 km/h 11.9 km/h 69 % 0 mm
09:17 -4.9 °C -8.3 °C 34428.8 hPa ESE 9 km/h 9 km/h 69 % 0 mm
09:22 -5 °C -8.3 °C 34428.8 hPa NE 8 km/h 8 km/h 69 % 0 mm
09:27 -5 °C -8.3 °C 34428.8 hPa ENE 6.3 km/h 6.3 km/h 69 % 0 mm
09:32 -5.1 °C -8.4 °C 34428.8 hPa NNE 3.7 km/h 3.7 km/h 69 % 0 mm
09:37 -5 °C -8.3 °C 34428.8 hPa WNW 6 km/h 6 km/h 69 % 0 mm
09:42 -5 °C -8.3 °C 34428.8 hPa NNW 6 km/h   69 % 0 mm
09:47 -4.9 °C -8.3 °C 34428.8 hPa NNW 6 km/h 6 km/h 69 % 0 mm
09:52 -4.9 °C -8.3 °C 34428.8 hPa NE 6.8 km/h 6.8 km/h 69 % 0 mm
09:57 -4.9 °C -8.4 °C 34428.8 hPa North 9.3 km/h 9.3 km/h 68 % 0 mm
10:02 -4.9 °C -8.4 °C 34428.8 hPa NNW 9 km/h 9 km/h 68 % 0 mm
10:07 -4.9 °C -8.4 °C 34428.8 hPa WNW 6 km/h 6 km/h 68 % 0 mm
10:12 -4.9 °C -8.4 °C 34428.8 hPa North 6 km/h 6 km/h 68 % 0 mm
10:17 -5.1 °C -8.3 °C 34462.7 hPa WNW 6 km/h 6 km/h 70 % 0 mm
10:22 -5.2 °C -8.3 °C 34462.7 hPa ENE 6 km/h 6 km/h 71 % 0 mm
10:27 -5.3 °C -8.3 °C 34462.7 hPa ENE 6 km/h 6 km/h 72 % 0 mm
10:32 -5.4 °C -8.2 °C 34462.7 hPa NNE 6 km/h   73 % 0 mm
10:37 -5.4 °C -8.1 °C 34462.7 hPa NE 3.1 km/h   74 % 0 mm
10:42 -5.4 °C -8.1 °C 34462.7 hPa NNE 6 km/h 6 km/h 74 % 0 mm
10:47 -5.3 °C -8 °C 34462.7 hPa NNE 6 km/h 6 km/h 74 % 0 mm
10:52 -5.3 °C -7.9 °C 34462.7 hPa NNE 6.8 km/h 6.8 km/h 75 % 0 mm
10:57 -5.3 °C -8 °C 34462.7 hPa North 9 km/h 9 km/h 74 % 0 mm
11:02 -5.1 °C -7.8 °C 34462.7 hPa ENE 9 km/h 9 km/h 74 % 0 mm
11:07 -5.1 °C -7.9 °C 34462.7 hPa NE 7.6 km/h 7.6 km/h 73 % 0 mm
11:12 -5.1 °C -7.9 °C 34462.7 hPa ENE 9 km/h 9 km/h 73 % 0 mm
11:17 -5.1 °C -8 °C 34462.7 hPa NNE 9 km/h 9 km/h 72 % 0 mm
11:22 -4.9 °C -7.8 °C 34462.7 hPa NNE 9 km/h 9 km/h 72 % 0 mm
11:27 -4.8 °C -7.9 °C 34462.7 hPa ENE 11.9 km/h 11.9 km/h 71 % 0 mm
11:32 -4.8 °C -8 °C 34462.7 hPa NE 11.9 km/h 11.9 km/h 70 % 0 mm
11:37 -4.8 °C -8 °C 34462.7 hPa NNE 9 km/h 9 km/h 70 % 0 mm
11:42 -4.7 °C -8.1 °C 34462.7 hPa WNW 3.1 km/h   69 % 0 mm
11:47 -4.7 °C -7.7 °C 34462.7 hPa West 3.1 km/h   71 % 0 mm
11:52 -4.7 °C -7.8 °C 34462.7 hPa ENE 6 km/h 6 km/h 71 % 0 mm
12:02 -4.7 °C -8 °C 34462.7 hPa NNE 6 km/h 6 km/h 69 % 0 mm
12:07 -4.6 °C -7.9 °C 34462.7 hPa East 3.1 km/h 3.1 km/h 69 % 0 mm
12:12 -4.6 °C -7.9 °C 34462.7 hPa NE 5.1 km/h 5.1 km/h 69 % 0 mm
12:17 -4.5 °C -7.8 °C 34462.7 hPa ENE 7.6 km/h 7.6 km/h 69 % 0 mm
12:22 -4.5 °C -7.7 °C 34462.7 hPa ESE 6 km/h 6 km/h 70 % 0 mm
12:27 -4.3 °C -7.7 °C 34462.7 hPa ESE 7.6 km/h 7.6 km/h 69 % 0 mm
12:32 -4.1 °C -7.2 °C 34462.7 hPa East 10.3 km/h 10.3 km/h 71 % 0 mm
12:37 -3.9 °C -7.4 °C 34462.7 hPa SE 6 km/h 6 km/h 68 % 0 mm
12:42 -3.9 °C -7.4 °C 34428.8 hPa ESE 9 km/h 9 km/h 68 % 0 mm
12:47 -3.9 °C -7.6 °C 34428.8 hPa ENE 11.9 km/h 11.9 km/h 67 % 0 mm
12:52 -3.8 °C -7.4 °C 34428.8 hPa SE 11.9 km/h 11.9 km/h 67 % 0 mm
12:57 -3.9 °C -7.6 °C 34428.8 hPa East 11.9 km/h 11.9 km/h 67 % 0 mm
13:02 -3.8 °C -7.4 °C 34428.8 hPa SSW 11.9 km/h 11.9 km/h 67 % 0 mm
13:07 -3.5 °C -7.2 °C 34428.8 hPa SSE 8 km/h 8 km/h 67 % 0 mm
13:12 -3.7 °C -7.4 °C 34428.8 hPa SSE 15 km/h 15 km/h 67 % 0 mm
13:17 -3.7 °C -7.3 °C 34428.8 hPa East 11.9 km/h 11.9 km/h 67 % 0 mm
13:22 -3.7 °C -7.3 °C 34428.8 hPa ESE 15 km/h 15 km/h 67 % 0 mm
13:27 -3.8 °C -7.3 °C 34428.8 hPa ENE 11.9 km/h 11.9 km/h 68 % 0 mm
13:32 -3.7 °C -7 °C 34428.8 hPa East 17.9 km/h 17.9 km/h 70 % 0 mm
13:37 -3.8 °C -6.9 °C 34428.8 hPa ESE 20.9 km/h 20.9 km/h 71 % 0 mm
13:42 -3.8 °C -6.8 °C 34428.8 hPa ENE 11.9 km/h 11.9 km/h 72 % 0 mm
13:47 -3.8 °C -6.8 °C 34428.8 hPa ESE 16.1 km/h 16.1 km/h 72 % 0 mm
13:52 -3.8 °C -6.8 °C 34428.8 hPa ENE 11.9 km/h 11.9 km/h 72 % 0 mm
13:57 -3.7 °C -6.7 °C 34428.8 hPa East 11.9 km/h 11.9 km/h 72 % 0 mm
14:02 -3.7 °C -6.7 °C 34428.8 hPa ENE 9 km/h 9 km/h 72 % 0 mm
14:07 -3.7 °C -6.7 °C 34428.8 hPa ESE 9 km/h 9 km/h 72 % 0 mm
14:12 -3.6 °C -6.6 °C 34428.8 hPa East 6 km/h 6.8 km/h 72 % 0 mm
14:17 -3.4 °C -6.6 °C 34428.8 hPa NNE 11.9 km/h 11.9 km/h 71 % 0 mm
14:22 -3.4 °C -6.7 °C 34428.8 hPa ESE 9 km/h 9 km/h 70 % 0 mm
14:27 -3.2 °C -6.6 °C 34462.7 hPa SW 11.9 km/h 11.9 km/h 69 % 0 mm
14:32 -2.8 °C -6.6 °C 34462.7 hPa SSE 11.9 km/h 11.9 km/h 66 % 0 mm
14:37 -2.6 °C -6.7 °C 34462.7 hPa ESE 15 km/h 15 km/h 64 % 0 mm
14:42 -2.2 °C -6.6 °C 34428.8 hPa SSE 20.9 km/h 20.9 km/h 62 % 0 mm
14:47 -2.1 °C -6.8 °C 34428.8 hPa South 19.6 km/h 19.6 km/h 60 % 0 mm
14:52 -1.9 °C -6.6 °C 34428.8 hPa WSW 15.3 km/h 15.3 km/h 60 % 0 mm
14:57 -1.9 °C -6.8 °C 34395 hPa South 17.9 km/h 17.9 km/h 59 % 0 mm
15:02 -1.7 °C -6.9 °C 34395 hPa SSE 29.8 km/h 29.8 km/h 57 % 0 mm
15:07 -1.6 °C -7 °C 34395 hPa SSW 20.9 km/h 20.9 km/h 56 % 0 mm
15:12 -1.7 °C -7.2 °C 34395 hPa SSW 26.9 km/h 26.9 km/h 55 % 0 mm
15:17 -1.3 °C -6.8 °C 34395 hPa SW 27.2 km/h 27.2 km/h 55 % 0 mm
15:22 -1.2 °C -6.7 °C 34395 hPa SW 17.9 km/h 17.9 km/h 55 % 0 mm
15:27 -1.4 °C -7.3 °C 34395 hPa WNW 23.8 km/h 23.8 km/h 53 % 0 mm
15:32 -1.3 °C -7.2 °C 34395 hPa SW 20.9 km/h 20.9 km/h 53 % 0 mm
15:37 -1.2 °C -7.3 °C 34395 hPa WSW 11.9 km/h 11.9 km/h 52 % 0 mm
15:42 -1.1 °C -7.2 °C 34395 hPa SSW 20.9 km/h 20.9 km/h 52 % 0 mm
15:47 -1.2 °C -7.3 °C 34395 hPa SSW 20.9 km/h 20.9 km/h 52 % 0 mm
15:52 -1.4 °C -7.4 °C 34395 hPa SSW 15 km/h 15 km/h 52 % 0 mm
15:57 -1.4 °C -7.4 °C 34395 hPa SW 17.4 km/h 17.4 km/h 52 % 0 mm
16:02 -1.6 °C -7.6 °C 34395 hPa SW 15 km/h 15 km/h 52 % 0 mm
16:07 -1.4 °C -7.7 °C 34395 hPa South 20.9 km/h 20.9 km/h 51 % 0 mm
16:12 -1.4 °C -7.4 °C 34395 hPa South 11.9 km/h 11.9 km/h 52 % 0 mm
16:17 -1.3 °C -7.5 °C 34395 hPa WSW 16.6 km/h 16.6 km/h 51 % 0 mm
16:22 -1.4 °C -7.6 °C 34395 hPa South 29.8 km/h 29.8 km/h 51 % 0 mm
16:27 -1.3 °C -7.5 °C 34395 hPa South 15 km/h 15 km/h 51 % 0 mm
16:32 -1.4 °C -7.7 °C 34395 hPa SW 18.3 km/h 18.3 km/h 51 % 0 mm
16:37 -1.5 °C -7.7 °C 34395 hPa SSW 14 km/h 14 km/h 51 % 0 mm
16:42 -1.4 °C -7.7 °C 34395 hPa SSW 25.4 km/h 25.4 km/h 51 % 0 mm
16:47 -1.7 °C -7.7 °C 34395 hPa SSW 17.9 km/h 17.9 km/h 52 % 0 mm
16:52 -1.6 °C -7.8 °C 34395 hPa WNW 17.9 km/h 17.9 km/h 51 % 0 mm
16:57 -1.7 °C -7.7 °C 34395 hPa West 15 km/h 15 km/h 52 % 0 mm
17:02 -1.8 °C -7.8 °C 34395 hPa SW 32.8 km/h 32.8 km/h 52 % 0 mm
17:07 -1.6 °C -7.6 °C 34395 hPa SW 12.7 km/h 12.7 km/h 52 % 0 mm
17:12 -1.6 °C -7.7 °C 34395 hPa WSW 20.9 km/h 20.9 km/h 52 % 0 mm
17:17 -1.6 °C -7.7 °C 34395 hPa SSW 15 km/h 15 km/h 52 % 0 mm
17:22 -1.6 °C -7.6 °C 34395 hPa WSW 28.2 km/h 28.2 km/h 52 % 0 mm
17:27 -1.8 °C -7.7 °C 34395 hPa South 11.9 km/h 11.9 km/h 53 % 0 mm
17:32 -1.8 °C -7.6 °C 34395 hPa WSW 16.6 km/h 16.6 km/h 53 % 0 mm
17:37 -2.2 °C -7.8 °C 34395 hPa SSW 17.9 km/h 17.9 km/h 54 % 0 mm
17:42 -2.1 °C -7.7 °C 34395 hPa WSW 23.8 km/h 23.8 km/h 54 % 0 mm
17:47 -2.2 °C -7.9 °C 34395 hPa SW 29.8 km/h 29.8 km/h 54 % 0 mm
17:52 -2.2 °C -7.7 °C 34395 hPa South 15.6 km/h 15.6 km/h 55 % 0 mm
17:57 -2.2 °C -7.7 °C 34395 hPa SSW 20.9 km/h 20.9 km/h 55 % 0 mm
18:02 -2.2 °C -7.7 °C 34395 hPa SSE 9 km/h 9 km/h 55 % 0 mm
18:07 -2.2 °C -7.7 °C 34395 hPa SSE 20.9 km/h 20.9 km/h 55 % 0 mm
18:12 -2.3 °C -7.8 °C 34395 hPa SW 12.7 km/h 12.7 km/h 55 % 0 mm
18:17 -2.3 °C -7.8 °C 34395 hPa SW 11.9 km/h 11.9 km/h 55 % 0 mm
18:22 -2.4 °C -7.7 °C 34395 hPa SSW 17.9 km/h 17.9 km/h 56 % 0 mm
18:27 -2.4 °C -7.7 °C 34361.1 hPa WSW 11.9 km/h 11.9 km/h 56 % 0 mm
18:32 -2.5 °C -7.8 °C 34361.1 hPa SSE 20.9 km/h 20.9 km/h 56 % 0 mm
18:37 -2.5 °C -7.8 °C 34361.1 hPa West 17.9 km/h 17.9 km/h 56 % 0 mm
18:42 -2.5 °C -7.8 °C 34361.1 hPa WSW 15 km/h 15 km/h 56 % 0 mm
18:47 -2.6 °C -7.9 °C 34361.1 hPa SW 17.9 km/h 17.9 km/h 56 % 0 mm
18:52 -2.7 °C -7.8 °C 34361.1 hPa SSW 9 km/h 9 km/h 57 % 0 mm
18:57 -2.7 °C -7.9 °C 34395 hPa South 14 km/h 14 km/h 57 % 0 mm
19:02 -2.8 °C -7.9 °C 34395 hPa SSW 15 km/h 15 km/h 57 % 0 mm
19:07 -2.9 °C -7.9 °C 34395 hPa SSE 11.9 km/h 11.9 km/h 58 % 0 mm
19:12 -3 °C -7.8 °C 34395 hPa SW 20.9 km/h 20.9 km/h 59 % 0 mm
19:17 -3.2 °C -7.9 °C 34395 hPa SSW 11.9 km/h 11.9 km/h 59 % 0 mm
19:22 -3.3 °C -7.9 °C 34395 hPa SW 23.8 km/h 23.8 km/h 60 % 0 mm
19:27 -3.3 °C -7.9 °C 34361.1 hPa SW 11.9 km/h 11.9 km/h 60 % 0 mm
19:32 -3.4 °C -7.9 °C 34361.1 hPa SW 11.9 km/h 11.9 km/h 61 % 0 mm
19:37 -3.6 °C -8.1 °C 34361.1 hPa WSW 20.9 km/h 20.9 km/h 61 % 0 mm
19:42 -3.7 °C -8.1 °C 34395 hPa South 15 km/h 15 km/h 62 % 0 mm
19:47 -3.7 °C -8.1 °C 34395 hPa SSE 14 km/h 14 km/h 62 % 0 mm
19:52 -3.8 °C -8.1 °C 34395 hPa SSW 19.2 km/h 19.2 km/h 62 % 0 mm
19:57 -3.9 °C -8.1 °C 34395 hPa WSW 17.9 km/h 17.9 km/h 63 % 0 mm
20:02 -3.9 °C -8.1 °C 34395 hPa West 11.9 km/h 11.9 km/h 63 % 0 mm
20:03 -3.9 °C -8 °C 34395 hPa SSW 15 km/h 15 km/h 64 % 0 mm
20:09 -4 °C -8.1 °C 34395 hPa SW 15 km/h 15 km/h 64 % 0 mm
20:13 -4.1 °C -7.9 °C 34395 hPa SE 11.9 km/h 11.9 km/h 65 % 0 mm
20:18 -4.1 °C -8 °C 34395 hPa South 15 km/h 15 km/h 65 % 0 mm
20:23 -4.2 °C -8.1 °C 34395 hPa SE 3.1 km/h 3.1 km/h 65 % 0 mm
20:28 -4.2 °C -8.1 °C 34428.8 hPa SW 15.3 km/h 15.3 km/h 65 % 0 mm
20:33 -4.2 °C -8 °C 34428.8 hPa WSW 6.3 km/h 6.3 km/h 66 % 0 mm
20:38 -4.3 °C -8 °C 34428.8 hPa SW 15 km/h 15 km/h 66 % 0 mm
20:43 -4.3 °C -8 °C 34462.7 hPa SW 17.9 km/h 17.9 km/h 66 % 0 mm
20:48 -4.3 °C -7.9 °C 34462.7 hPa SW 11.9 km/h 11.9 km/h 67 % 0 mm
20:53 -4.4 °C -8.2 °C 34462.7 hPa South 11.9 km/h 11.9 km/h 66 % 0 mm
20:58 -4.3 °C -7.9 °C 34462.7 hPa SW 6 km/h   67 % 0 mm
21:03 -4.3 °C -7.9 °C 34462.7 hPa SW 6 km/h 6 km/h 67 % 0 mm
21:08 -4.3 °C -7.9 °C 34462.7 hPa SW 8 km/h 8 km/h 67 % 0 mm
21:13 -4.4 °C -8 °C 34462.7 hPa SW 11.9 km/h 11.9 km/h 67 % 0 mm
21:18 -4.4 °C -8.1 °C 34462.7 hPa SW 8.5 km/h 8.5 km/h 67 % 0 mm
21:23 -4.4 °C -8.1 °C 34462.7 hPa South 9 km/h 9 km/h 67 % 0 mm
21:28 -4.5 °C -8 °C 34462.7 hPa SSW 6.3 km/h 6.3 km/h 68 % 0 mm
21:33 -4.5 °C -8 °C 34462.7 hPa SW 11.9 km/h 11.9 km/h 68 % 0 mm
21:38 -4.6 °C -7.9 °C 34462.7 hPa SW 2.3 km/h 2.3 km/h 69 % 0 mm
21:43 -4.6 °C -7.9 °C 34428.8 hPa WSW 8 km/h 8 km/h 69 % 0 mm
21:48 -4.6 °C -7.9 °C 34428.8 hPa SW 11.9 km/h 11.9 km/h 69 % 0 mm
21:53 -4.6 °C -7.9 °C 34428.8 hPa SW 6 km/h 6 km/h 69 % 0 mm
21:58 -4.6 °C -7.9 °C 34462.7 hPa SW 6 km/h 6 km/h 69 % 0 mm
22:03 -4.6 °C -7.9 °C 34462.7 hPa WSW 11.9 km/h 11.9 km/h 69 % 0 mm
22:08 -4.6 °C -7.9 °C 34462.7 hPa SW 9 km/h 9 km/h 69 % 0 mm
22:13 -4.7 °C -8 °C 34462.7 hPa WSW 9 km/h 9 km/h 69 % 0 mm
22:18 -4.7 °C -8 °C 34462.7 hPa SW 8 km/h 8 km/h 69 % 0 mm
22:23 -4.7 °C -7.9 °C 34462.7 hPa SW 6.8 km/h 6.8 km/h 70 % 0 mm
22:28 -4.7 °C -7.9 °C 34462.7 hPa SW 6.3 km/h 6.3 km/h 70 % 0 mm
22:33 -4.7 °C -7.9 °C 34462.7 hPa SW 6 km/h 6 km/h 70 % 0 mm
22:39 -4.7 °C -7.9 °C 34462.7 hPa WSW 6 km/h 6 km/h 70 % 0 mm
22:43 -4.8 °C -8 °C 34496.6 hPa WSW 6 km/h 6 km/h 70 % 0 mm
22:48 -4.8 °C -8 °C 34496.6 hPa WSW 6 km/h 6 km/h 70 % 0 mm
22:53 -4.8 °C -7.9 °C 34496.6 hPa SW 6 km/h 6 km/h 71 % 0 mm
22:58 -4.8 °C -7.9 °C 34462.7 hPa SW 6 km/h 6 km/h 71 % 0 mm
23:03 -4.8 °C -7.9 °C 34462.7 hPa SW 6 km/h 6 km/h 71 % 0 mm
23:08 -4.8 °C -7.9 °C 34462.7 hPa WSW 6 km/h 6 km/h 71 % 0 mm
23:13 -4.8 °C -7.9 °C 34496.6 hPa SW 5.6 km/h   71 % 0 mm
23:18 -4.9 °C -7.9 °C 34496.6 hPa SW 6 km/h 6 km/h 71 % 0 mm
23:23 -4.9 °C -7.9 °C 34496.6 hPa SW 6.3 km/h 6.8 km/h 71 % 0 mm
23:28 -4.9 °C -8 °C 34462.7 hPa WSW 6.3 km/h 6.3 km/h 71 % 0 mm
23:33 -5 °C -7.9 °C 34462.7 hPa WSW 6 km/h 6 km/h 72 % 0 mm
23:38 -5 °C -7.9 °C 34462.7 hPa SW 6 km/h 6 km/h 72 % 0 mm
23:43 -5.1 °C -8 °C 34462.7 hPa WSW 6 km/h 6 km/h 72 % 0 mm
23:48 -5.1 °C -8 °C 34462.7 hPa WSW 6 km/h 6 km/h 72 % 0 mm
23:53 -5.1 °C -8 °C 34462.7 hPa West 6 km/h 6 km/h 72 % 0 mm
23:58 -5.1 °C -7.9 °C 34496.6 hPa SW 6 km/h 6 km/h 73 % 0 mm
Meteo Sesrovires
Elogis d' Weather Underground - 1.75 mb

Guio original per  Jim McMurry - jmcmurry@mwt.net Adaptat per a la plantilla per  Wim van der Kuil - Leuven-Template.eu

Trobareu la nostra informacio del temps tambe a:

Weather Underground

AWEKAS